Terminal Aerodrome Forecast
Issued by NWS Burlington, VT

Home | Current Version | Previous Version | Text Only | Print | Product List | Glossary On
Versions: 1 2 3 4 5 6 7 8 9 10 11 12 13 14 15
000
FTUS41 KBTV 302320
TAFBTV
TAF
KBTV 302320Z 3100/3124 16006KT P6SM BKN070 BKN200
     FM310500 18006KT P6SM VCSH BKN060
     FM311800 22006KT 5SM -SHRA BR SCT040 BKN060=

USA.gov is the U.S. government's official web portal to all federal, state and local government web resources and services.